Pueblo Of Acoma, NM (87034)

05:51 MDT le 01 août 2014 (GMT -0600)
Old Laguna Sub (KNMNEWME2) Alt. 5820 ft | 35.05 °N, 107.37 °W | Change Station
Avis météorologiques actifs: Flash Flood Watch

Current weather conditions updated 3 minutes ago

Clear
Ciel dégagé
58.6 ° F
Paraît 58.6 ° F
N
2.5
Vent Variable Vent de Est
Gusts 2.9 mph

Aujourd’hui il est prévu de faire pratiquement la même température qu’hier. Orages..

Aujourd'hui
Haut(e) -- | Bas -- ° F
--% Risque de précip.
Hier
Haut(e) -- | Bas -- ° F
Precip. -- pouce
6:19 AM 8:13 PM
Lune montante, 26% visible
Pression 30.30 pouce
Visibilité 10.0 Miles terrestres
Nuages Ciel dégagé
Point de rosée 55 ° F
Humidité 88%
Précipitations 0.00 pouce
Profondeur de la couche neigeuse Non disponible.
UV 0 sur 12
Pollen .60 sur 12
Qualité de l'air Non disponible.
Flu Activity Non disponible.
METAR KAEG 011135Z AUTO 35006KT 10SM CLR 14/12 A3030 RMK AO2 T01400123

More Conditions Fewer Conditions

Pression 30.30 pouce
Visibilité 10.0 Miles terrestres
Nuages Ciel dégagé
Point de rosée 55 ° F
Humidité 88%
Précipitations 0.00 pouce
Profondeur de la couche neigeuse Non disponible.
UV 0 sur 12
Pollen .60 sur 12
Qualité de l'air Non disponible.
Flu Activity Non disponible.
METAR KAEG 011135Z AUTO 35006KT 10SM CLR 14/12 A3030 RMK AO2 T01400123

More Conditions Fewer Conditions

10-Day Weather Forecast

Almanac

Astronomie

Aug. 01, 2014 Lever Coucher
Temps réel 06:19 MDT 20:13 MDT
Crépuscule civil 05:51 MDT 20:41 MDT
Crépuscule nautique 05:18 MDT 21:14 MDT
Crépuscule astronomique 04:42 MDT 21:50 MDT
Lune 11:32 MDT 23:14 MDT
Durée de lumière visible 14h 49m
Longueur du jour
13h 53m
Tomorrow will be 1m 39s shorter.
Lune montante, 26% of the Moon is Illuminated
Aujourd'hui
Lune montante
août 3
Premier quartier
août 10
Pleine lune
août 17
Dernier quartier
août 25
Nouveau

Extrêmes aujourd'hui

State Highs State Lows

Community

WunderPhotos

Upload Photos

1,739,538 Photos téléchargées !

Nearby

Épaisseur de neige

Station Depth Altitude
Elk Cabin 122 in 8210 ft
Lookout Mountain 0 in 8500 ft
Bateman 0 in 9300 ft
Wesner Springs 2 in 11120 ft
Silver Creek Divide 3 in 9000 ft

Activité sismique

Ville Distance Mag. Time & Date
No recent earthquake activity has been reported nearby.
Minimum magnitude displayed is 2.5.

Températures des eaux côtières

Lieu Température
Aucun rapport de station

Stations météo à proximité

Emplacement de la station Température Point de rosée Humidité Vent Precip. Alt. Mise à jour Type
RAWS LAGUNA NM, Laguna, NM 59 ° F 56 ° F 90% SSO  à  2 mph 0.00 pouce / hr 5805 ft 4:33 AM MDT MADIS
Old Laguna Sub, New Mexico, NM 58.6 ° F 55 ° F 88% Est  à  2.5 mph 0.00 pouce / hr 5820 ft 5:48 AM MDT Normal

Show More Stations Show Fewer Stations